createdAt,value
2023-08-22T00:00:34.442Z,93.78
2023-08-22T00:03:01.678Z,93.19
2023-08-22T00:05:28.723Z,93.44
2023-08-22T00:07:55.514Z,92.57
2023-08-22T00:10:22.304Z,94.01
2023-08-22T00:12:49.482Z,94.37
2023-08-22T00:15:19.231Z,94.10
2023-08-22T00:17:46.224Z,94.07
2023-08-22T00:20:13.924Z,95.38
2023-08-22T00:22:41.437Z,96.44
2023-08-22T00:25:08.975Z,95.64
2023-08-22T00:27:36.691Z,95.99
2023-08-22T00:30:04.158Z,95.79
2023-08-22T00:32:31.638Z,95.65
2023-08-22T00:34:59.016Z,95.08
2023-08-22T00:37:25.892Z,94.83
2023-08-22T00:39:52.965Z,95.72
2023-08-22T00:42:19.847Z,95.09
2023-08-22T00:44:46.647Z,95.97
2023-08-22T00:47:14.118Z,96.80
2023-08-22T00:49:41.120Z,97.12
2023-08-22T00:52:08.916Z,96.74
2023-08-22T00:54:36.503Z,96.69
2023-08-22T00:57:04.644Z,97.42
2023-08-22T00:59:31.750Z,97.42
2023-08-22T01:01:58.483Z,97.15
2023-08-22T01:04:25.302Z,98.33
2023-08-22T01:07:09.748Z,98.81
2023-08-22T01:10:12.519Z,98.26
2023-08-22T01:13:05.825Z,99.04
2023-08-22T01:15:36.009Z,99.45
2023-08-22T01:18:05.584Z,99.67
2023-08-22T01:20:32.590Z,98.76
2023-08-22T01:22:59.869Z,99.48
2023-08-22T01:25:27.575Z,98.59
2023-08-22T01:28:18.094Z,99.26
2023-08-22T01:30:59.591Z,99.45
2023-08-22T01:34:10.279Z,99.37
2023-08-22T01:36:37.922Z,99.70
2023-08-22T01:39:09.136Z,99.53
2023-08-22T01:41:36.550Z,99.58
2023-08-22T01:44:06.408Z,100.00
2023-08-22T01:46:33.536Z,100.00
2023-08-22T01:49:00.414Z,99.61
2023-08-22T01:51:27.303Z,99.04
2023-08-22T01:53:54.391Z,99.76
2023-08-22T01:56:21.246Z,99.51
2023-08-22T01:58:48.294Z,99.79
2023-08-22T02:01:15.256Z,100.00
2023-08-22T02:03:43.032Z,98.79
2023-08-22T02:06:10.691Z,100.00
2023-08-22T02:08:39.189Z,99.67
2023-08-22T02:11:06.113Z,100.00
2023-08-22T02:13:33.431Z,100.00
2023-08-22T02:16:00.785Z,100.00
2023-08-22T02:18:27.810Z,100.00
2023-08-22T02:20:56.642Z,100.00
2023-08-22T02:23:23.525Z,100.00
2023-08-22T02:25:50.409Z,100.00
2023-08-22T02:28:17.138Z,100.00
2023-08-22T02:30:43.984Z,100.00
2023-08-22T02:33:10.971Z,100.00
2023-08-22T02:35:38.112Z,100.00
2023-08-22T02:38:05.127Z,100.00
2023-08-22T02:40:32.033Z,100.00
2023-08-22T02:42:58.903Z,100.00
2023-08-22T02:45:25.809Z,100.00
2023-08-22T02:47:54.724Z,100.00
2023-08-22T02:50:24.812Z,100.00
2023-08-22T02:52:52.504Z,100.00
2023-08-22T02:55:19.485Z,100.00
2023-08-22T02:57:46.566Z,100.00
2023-08-22T03:00:14.703Z,100.00
2023-08-22T03:02:41.800Z,100.00
2023-08-22T03:05:11.646Z,100.00
2023-08-22T03:07:38.824Z,100.00
2023-08-22T03:10:06.511Z,100.00
2023-08-22T03:12:33.377Z,100.00
2023-08-22T03:15:00.170Z,100.00
2023-08-22T03:17:27.173Z,100.00
2023-08-22T03:19:54.194Z,100.00
2023-08-22T03:22:21.006Z,100.00
2023-08-22T03:24:47.725Z,100.00
2023-08-22T03:27:14.550Z,100.00
2023-08-22T03:29:41.431Z,100.00
2023-08-22T03:32:08.326Z,100.00
2023-08-22T03:34:35.111Z,100.00
2023-08-22T03:37:01.970Z,100.00
2023-08-22T03:39:29.094Z,100.00
2023-08-22T03:41:55.978Z,100.00
2023-08-22T03:44:22.709Z,100.00
2023-08-22T03:46:49.539Z,100.00
2023-08-22T03:49:19.352Z,100.00
2023-08-22T03:51:46.494Z,100.00
2023-08-22T03:54:13.475Z,100.00
2023-08-22T03:56:40.222Z,100.00
2023-08-22T03:59:06.949Z,100.00
2023-08-22T04:01:33.698Z,100.00
2023-08-22T04:04:00.819Z,100.00
2023-08-22T04:06:27.811Z,100.00
2023-08-22T04:08:54.578Z,100.00
2023-08-22T04:11:21.855Z,100.00
2023-08-22T04:13:48.642Z,100.00
2023-08-22T04:16:15.458Z,100.00
2023-08-22T04:18:42.266Z,100.00
2023-08-22T04:21:09.152Z,100.00
2023-08-22T04:23:35.981Z,100.00
2023-08-22T04:26:03.812Z,100.00
2023-08-22T04:28:31.404Z,100.00
2023-08-22T04:30:59.458Z,100.00
2023-08-22T04:33:26.941Z,100.00
2023-08-22T04:35:54.753Z,100.00
2023-08-22T04:38:21.824Z,100.00
2023-08-22T04:40:48.848Z,100.00
2023-08-22T04:43:15.669Z,100.00
2023-08-22T04:45:42.464Z,100.00
2023-08-22T04:48:09.482Z,100.00
2023-08-22T04:50:36.988Z,100.00
2023-08-22T04:53:04.080Z,100.00
2023-08-22T04:55:30.903Z,100.00
2023-08-22T04:57:57.817Z,100.00
2023-08-22T05:00:24.956Z,100.00
2023-08-22T05:02:51.913Z,100.00
2023-08-22T05:05:18.778Z,100.00
2023-08-22T05:07:45.580Z,100.00
2023-08-22T05:10:12.664Z,100.00
2023-08-22T05:12:39.627Z,100.00
2023-08-22T05:15:07.122Z,100.00
2023-08-22T05:17:34.049Z,100.00
2023-08-22T05:20:01.115Z,100.00
2023-08-22T05:22:27.870Z,100.00
2023-08-22T05:24:54.695Z,100.00
2023-08-22T05:27:21.483Z,100.00
2023-08-22T05:29:48.315Z,100.00
2023-08-22T05:32:15.118Z,100.00
2023-08-22T05:34:42.043Z,100.00
2023-08-22T05:37:08.840Z,100.00
2023-08-22T05:39:35.847Z,100.00
2023-08-22T05:42:02.706Z,100.00
2023-08-22T05:44:33.230Z,100.00
2023-08-22T05:47:00.109Z,100.00
2023-08-22T05:49:26.950Z,100.00
2023-08-22T05:52:03.349Z,100.00
2023-08-22T05:54:30.282Z,100.00
2023-08-22T05:56:57.046Z,100.00
2023-08-22T05:59:24.618Z,100.00
2023-08-22T06:01:51.614Z,100.00
2023-08-22T06:04:21.965Z,100.00
2023-08-22T06:06:49.119Z,100.00
2023-08-22T06:09:15.969Z,100.00
2023-08-22T06:11:42.693Z,100.00
2023-08-22T06:14:09.506Z,100.00
2023-08-22T06:16:36.420Z,100.00
2023-08-22T06:19:03.775Z,100.00
2023-08-22T06:21:30.648Z,100.00
2023-08-22T06:23:58.667Z,100.00
2023-08-22T06:26:25.759Z,100.00
2023-08-22T06:28:53.520Z,100.00
2023-08-22T06:31:20.400Z,100.00
2023-08-22T06:33:47.185Z,100.00
2023-08-22T06:36:14.981Z,100.00
2023-08-22T06:38:41.969Z,100.00
2023-08-22T06:41:09.397Z,100.00
2023-08-22T06:43:36.498Z,100.00
2023-08-22T06:46:03.840Z,100.00
2023-08-22T06:48:40.085Z,100.00
2023-08-22T06:51:08.295Z,99.90
2023-08-22T06:53:35.366Z,98.51
2023-08-22T06:56:02.902Z,98.02
2023-08-22T06:58:29.785Z,97.52
2023-08-22T07:00:56.702Z,97.03
2023-08-22T07:03:23.546Z,96.48
2023-08-22T07:05:55.020Z,96.70
2023-08-22T07:08:22.029Z,96.09
2023-08-22T07:10:49.186Z,94.10
2023-08-22T07:13:18.742Z,94.21
2023-08-22T07:15:47.159Z,93.28
2023-08-22T07:18:14.012Z,91.70
2023-08-22T07:20:40.936Z,91.71
2023-08-22T07:23:07.748Z,89.79
2023-08-22T07:25:34.670Z,88.40
2023-08-22T07:28:01.608Z,89.89
2023-08-22T07:30:28.428Z,89.92
2023-08-22T07:32:55.463Z,89.51
2023-08-22T07:35:22.336Z,88.10
2023-08-22T07:37:49.500Z,88.05
2023-08-22T07:40:17.957Z,89.60
2023-08-22T07:42:44.782Z,89.88
2023-08-22T07:45:11.976Z,87.81
2023-08-22T07:47:38.819Z,87.85
2023-08-22T07:50:06.692Z,88.19
2023-08-22T07:52:33.969Z,87.61
2023-08-22T07:55:00.845Z,86.56
2023-08-22T07:57:27.812Z,86.19
2023-08-22T07:59:55.719Z,86.22
2023-08-22T08:02:23.010Z,85.89
2023-08-22T08:04:50.227Z,87.18
2023-08-22T08:07:17.037Z,86.08
2023-08-22T08:09:44.070Z,86.03
2023-08-22T08:12:10.920Z,85.26
2023-08-22T08:14:37.699Z,85.23
2023-08-22T08:17:04.826Z,85.21
2023-08-22T08:19:31.638Z,84.13
2023-08-22T08:21:58.450Z,85.45
2023-08-22T08:24:25.538Z,85.00
2023-08-22T08:26:52.573Z,83.61
2023-08-22T08:29:19.636Z,84.48
2023-08-22T08:31:47.045Z,84.47
2023-08-22T08:34:14.081Z,84.38
2023-08-22T08:36:40.859Z,84.37
2023-08-22T08:39:07.877Z,84.48
2023-08-22T08:41:35.424Z,87.31
2023-08-22T08:44:02.813Z,85.60
2023-08-22T08:46:31.653Z,82.76
2023-08-22T08:48:59.008Z,82.25
2023-08-22T08:51:26.380Z,82.11
2023-08-22T08:53:55.261Z,80.67
2023-08-22T08:56:24.434Z,79.70
2023-08-22T08:58:52.175Z,78.33
2023-08-22T09:01:19.319Z,76.62
2023-08-22T09:03:48.181Z,74.13
2023-08-22T09:06:15.377Z,75.85
2023-08-22T09:09:02.989Z,80.71
2023-08-22T09:11:29.808Z,78.39
2023-08-22T09:13:57.684Z,75.09
2023-08-22T09:16:25.649Z,76.50
2023-08-22T09:18:52.816Z,75.21
2023-08-22T09:21:19.983Z,76.54
2023-08-22T09:23:51.022Z,74.99
2023-08-22T09:26:25.767Z,76.97
2023-08-22T09:28:52.658Z,70.51
2023-08-22T09:31:23.887Z,70.47
2023-08-22T09:33:51.449Z,70.12
2023-08-22T09:36:22.254Z,70.02
2023-08-22T09:38:57.119Z,67.60
2023-08-22T09:41:29.219Z,68.06
2023-08-22T09:44:00.134Z,69.97
2023-08-22T09:46:28.301Z,67.70
2023-08-22T09:48:58.488Z,66.77
2023-08-22T09:51:25.755Z,67.18
2023-08-22T09:53:54.149Z,67.49
2023-08-22T09:56:21.895Z,68.11
2023-08-22T09:58:48.782Z,65.95
2023-08-22T10:01:17.782Z,66.16
2023-08-22T10:03:46.456Z,65.02
2023-08-22T10:06:14.536Z,65.72
2023-08-22T10:08:48.010Z,65.78
2023-08-22T10:11:16.873Z,66.10
2023-08-22T10:13:44.182Z,66.07
2023-08-22T10:16:11.512Z,63.07
2023-08-22T10:18:38.507Z,62.79
2023-08-22T10:21:06.209Z,62.60
2023-08-22T10:23:55.626Z,63.87
2023-08-22T10:26:23.852Z,61.75
2023-08-22T10:29:19.055Z,61.16
2023-08-22T10:32:15.550Z,61.32
2023-08-22T10:35:03.234Z,59.51
2023-08-22T10:37:30.214Z,60.83
2023-08-22T10:40:00.866Z,60.26
2023-08-22T10:42:27.895Z,59.66
2023-08-22T10:44:57.825Z,59.46
2023-08-22T10:47:26.781Z,59.51
2023-08-22T10:50:07.368Z,59.79
2023-08-22T10:52:42.814Z,58.77
2023-08-22T10:55:15.795Z,60.36
2023-08-22T10:57:47.384Z,60.31
2023-08-22T11:00:24.531Z,59.38
2023-08-22T11:02:58.708Z,58.17
2023-08-22T11:05:25.831Z,57.64
2023-08-22T11:07:55.615Z,57.38
2023-08-22T11:10:26.836Z,56.56
2023-08-22T11:12:57.390Z,58.16
2023-08-22T11:15:24.375Z,58.54
2023-08-22T11:17:52.185Z,58.73
2023-08-22T11:20:22.373Z,57.95
2023-08-22T11:22:50.033Z,59.00
2023-08-22T11:25:24.931Z,57.60
2023-08-22T11:27:51.777Z,57.90
2023-08-22T11:30:20.075Z,58.52
2023-08-22T11:32:47.887Z,57.04
2023-08-22T11:35:15.146Z,57.57
2023-08-22T11:37:44.300Z,56.70
2023-08-22T11:40:17.766Z,56.08
2023-08-22T11:42:48.300Z,55.25
2023-08-22T11:45:16.445Z,56.95
2023-08-22T11:47:54.135Z,55.58
2023-08-22T11:50:28.991Z,57.02
2023-08-22T11:53:09.310Z,56.69
2023-08-22T11:55:49.155Z,56.62
2023-08-22T11:58:18.226Z,58.20
2023-08-22T12:00:45.442Z,59.18
2023-08-22T12:03:12.297Z,59.48
2023-08-22T12:05:46.053Z,58.39
2023-08-22T12:08:23.145Z,56.58
2023-08-22T12:10:51.781Z,56.70
2023-08-22T12:13:20.749Z,57.85
2023-08-22T12:15:48.103Z,57.39
2023-08-22T12:18:15.454Z,57.27
2023-08-22T12:20:43.377Z,58.60
2023-08-22T12:23:11.772Z,56.38
2023-08-22T12:25:40.664Z,56.97
2023-08-22T12:28:08.075Z,57.02
2023-08-22T12:30:36.762Z,56.74
2023-08-22T12:33:04.996Z,57.01
2023-08-22T12:35:36.940Z,57.33
2023-08-22T12:38:04.314Z,57.80
2023-08-22T12:40:31.192Z,58.23
2023-08-22T12:42:59.912Z,57.88
2023-08-22T12:45:27.982Z,56.92
2023-08-22T12:47:54.907Z,57.77
2023-08-22T12:50:21.991Z,57.40
2023-08-22T12:52:52.083Z,57.09
2023-08-22T12:55:22.158Z,57.27
2023-08-22T12:57:49.812Z,56.78
2023-08-22T13:00:16.966Z,57.99
2023-08-22T13:02:44.052Z,59.26
2023-08-22T13:05:14.448Z,59.79
2023-08-22T13:07:41.390Z,58.63
2023-08-22T13:10:08.736Z,58.78
2023-08-22T13:12:36.054Z,58.15
2023-08-22T13:15:05.748Z,58.27
2023-08-22T13:17:33.010Z,60.48
2023-08-22T13:20:00.450Z,59.29
2023-08-22T13:22:27.340Z,58.50
2023-08-22T13:24:54.099Z,60.52
2023-08-22T13:27:21.280Z,62.13
2023-08-22T13:29:48.200Z,62.12
2023-08-22T13:32:14.967Z,59.83
2023-08-22T13:34:41.924Z,60.04
2023-08-22T13:37:08.747Z,59.42
2023-08-22T13:39:35.560Z,58.28
2023-08-22T13:42:02.539Z,59.02
2023-08-22T13:44:29.576Z,57.86
2023-08-22T13:46:56.304Z,57.99
2023-08-22T13:49:23.185Z,56.54
2023-08-22T13:51:49.987Z,57.63
2023-08-22T13:54:17.882Z,57.36
2023-08-22T13:56:44.599Z,58.66
2023-08-22T13:59:11.439Z,56.56
2023-08-22T14:01:39.241Z,58.46
2023-08-22T14:04:06.400Z,57.04
2023-08-22T14:06:53.650Z,56.84
2023-08-22T14:11:50.677Z,57.88
2023-08-22T14:14:17.486Z,57.89
2023-08-22T14:16:45.004Z,59.72
2023-08-22T14:19:11.832Z,60.44
2023-08-22T14:21:46.999Z,60.09
2023-08-22T14:24:20.023Z,57.91
2023-08-22T14:26:46.895Z,56.45
2023-08-22T14:29:13.643Z,55.30
2023-08-22T14:31:40.779Z,54.59
2023-08-22T14:34:08.827Z,56.08
2023-08-22T14:36:35.704Z,55.37
2023-08-22T14:39:02.682Z,54.70
2023-08-22T14:41:29.483Z,54.43
2023-08-22T14:43:57.629Z,54.23
2023-08-22T14:46:24.549Z,53.17
2023-08-22T14:48:51.937Z,55.58
2023-08-22T14:51:20.002Z,52.85
2023-08-22T14:53:47.406Z,53.21
2023-08-22T14:56:14.265Z,53.39
2023-08-22T14:58:45.478Z,53.14
2023-08-22T15:01:13.225Z,53.06
2023-08-22T15:03:40.933Z,51.90
2023-08-22T15:06:08.709Z,54.44
2023-08-22T15:08:36.089Z,54.10
2023-08-22T15:11:03.796Z,52.74
2023-08-22T15:13:30.925Z,53.82
2023-08-22T15:15:58.378Z,52.22
2023-08-22T15:18:26.555Z,53.24
2023-08-22T15:20:54.572Z,54.50
2023-08-22T15:23:22.305Z,54.11
2023-08-22T15:25:51.034Z,56.82
2023-08-22T15:28:18.398Z,58.00
2023-08-22T15:30:45.492Z,57.42
2023-08-22T15:33:12.937Z,58.08
2023-08-22T15:35:49.635Z,58.55
2023-08-22T15:38:17.128Z,58.45
2023-08-22T15:40:51.795Z,57.61
2023-08-22T15:43:20.024Z,57.17
2023-08-22T15:45:50.671Z,57.38
2023-08-22T15:48:17.781Z,57.82
2023-08-22T15:50:47.016Z,59.18
2023-08-22T15:53:14.644Z,57.62
2023-08-22T15:55:42.037Z,58.92
2023-08-22T15:58:08.862Z,60.59
2023-08-22T16:00:36.190Z,61.03
2023-08-22T16:03:03.061Z,62.32
2023-08-22T16:05:30.135Z,61.24
2023-08-22T16:07:57.057Z,62.77
2023-08-22T16:10:23.850Z,63.36
2023-08-22T16:12:50.568Z,62.17
2023-08-22T16:15:17.441Z,62.08
2023-08-22T16:17:45.426Z,61.41
2023-08-22T16:20:12.841Z,64.40
2023-08-22T16:22:39.780Z,63.83
2023-08-22T16:25:06.957Z,63.41
2023-08-22T16:27:46.548Z,63.79
2023-08-22T16:30:14.612Z,66.90
2023-08-22T16:32:41.535Z,64.67
2023-08-22T16:35:08.959Z,64.58
2023-08-22T16:37:35.735Z,64.91
2023-08-22T16:40:02.485Z,64.98
2023-08-22T16:42:29.514Z,63.20
2023-08-22T16:44:56.476Z,66.30
2023-08-22T16:47:23.265Z,64.65
2023-08-22T16:49:50.042Z,64.47
2023-08-22T16:52:16.862Z,64.05
2023-08-22T16:54:43.703Z,63.81
2023-08-22T16:57:10.812Z,63.08
2023-08-22T16:59:37.905Z,63.69
2023-08-22T17:02:05.007Z,64.38
2023-08-22T17:04:31.923Z,64.74
2023-08-22T17:06:58.841Z,64.90
2023-08-22T17:09:25.737Z,65.86
2023-08-22T17:11:52.554Z,65.62
2023-08-22T17:14:19.468Z,68.42
2023-08-22T17:16:46.516Z,66.11
2023-08-22T17:19:14.117Z,65.64
2023-08-22T17:21:40.865Z,66.22
2023-08-22T17:24:08.495Z,65.90
2023-08-22T17:26:35.350Z,65.71
2023-08-22T17:29:02.380Z,66.98
2023-08-22T17:31:29.613Z,69.38
2023-08-22T17:33:56.703Z,68.14
2023-08-22T17:36:23.441Z,69.36
2023-08-22T17:38:52.012Z,69.07
2023-08-22T17:41:18.909Z,69.17
2023-08-22T17:43:45.904Z,68.21
2023-08-22T17:46:14.360Z,70.19
2023-08-22T17:48:41.371Z,68.24
2023-08-22T17:51:08.426Z,67.29
2023-08-22T17:53:35.401Z,69.17
2023-08-22T17:56:02.327Z,69.73
2023-08-22T17:58:29.153Z,68.26
2023-08-22T18:00:56.093Z,68.53
2023-08-22T18:03:23.099Z,68.34
2023-08-22T18:06:01.178Z,68.71
2023-08-22T18:08:28.936Z,67.37
2023-08-22T18:10:56.770Z,67.48
2023-08-22T18:13:23.922Z,67.57
2023-08-22T18:16:08.148Z,68.51
2023-08-22T18:18:40.122Z,67.79
2023-08-22T18:21:11.878Z,69.09
2023-08-22T18:23:40.393Z,70.85
2023-08-22T18:26:09.058Z,73.04
2023-08-22T18:28:36.305Z,73.93
2023-08-22T18:31:09.839Z,72.84
2023-08-22T18:33:36.749Z,75.10
2023-08-22T18:36:03.546Z,75.08
2023-08-22T18:38:30.575Z,73.42
2023-08-22T18:40:58.948Z,74.24
2023-08-22T18:43:25.758Z,75.46
2023-08-22T18:45:52.652Z,74.03
2023-08-22T18:48:19.938Z,74.49
2023-08-22T18:50:49.239Z,77.48
2023-08-22T18:53:16.515Z,79.61
2023-08-22T18:55:43.470Z,79.26
2023-08-22T18:58:10.599Z,80.50
2023-08-22T19:00:37.381Z,80.98
2023-08-22T19:03:04.923Z,81.28
2023-08-22T19:05:32.043Z,80.16
2023-08-22T19:07:58.993Z,79.69
2023-08-22T19:10:25.918Z,80.05
2023-08-22T19:12:53.119Z,80.34
2023-08-22T19:15:20.631Z,78.68
2023-08-22T19:17:48.207Z,81.06
2023-08-22T19:20:15.380Z,81.31
2023-08-22T19:22:42.289Z,82.20
2023-08-22T19:25:09.613Z,79.82
2023-08-22T19:27:37.259Z,80.82
2023-08-22T19:30:04.706Z,82.13
2023-08-22T19:32:42.244Z,81.71
2023-08-22T19:35:18.670Z,82.96
2023-08-22T19:37:46.008Z,84.96
2023-08-22T19:40:13.198Z,85.31
2023-08-22T19:42:40.291Z,86.19
2023-08-22T19:45:08.000Z,86.33
2023-08-22T19:47:35.790Z,86.30
2023-08-22T19:50:02.673Z,88.94
2023-08-22T19:52:29.614Z,86.93
2023-08-22T19:54:56.505Z,85.47
2023-08-22T19:57:23.360Z,87.08
2023-08-22T19:59:50.581Z,88.60
2023-08-22T20:02:17.534Z,88.29
2023-08-22T20:04:44.450Z,89.67
2023-08-22T20:07:11.528Z,90.13
2023-08-22T20:09:38.377Z,90.11
2023-08-22T20:12:06.261Z,91.61
2023-08-22T20:14:33.032Z,91.51
2023-08-22T20:16:59.947Z,92.43
2023-08-22T20:19:26.952Z,94.16
2023-08-22T20:21:54.232Z,92.44
2023-08-22T20:24:21.166Z,92.29
2023-08-22T20:26:48.216Z,91.64
2023-08-22T20:29:15.946Z,91.58
2023-08-22T20:31:42.792Z,91.95
2023-08-22T20:34:09.718Z,91.27
2023-08-22T20:36:36.648Z,92.19
2023-08-22T20:39:05.213Z,92.42
2023-08-22T20:41:32.522Z,92.10
2023-08-22T20:44:00.238Z,92.46
2023-08-22T20:46:27.593Z,95.01
2023-08-22T20:48:54.828Z,95.82
2023-08-22T20:51:21.784Z,96.33
2023-08-22T20:53:48.601Z,97.21
2023-08-22T20:56:15.570Z,96.95
2023-08-22T20:58:42.497Z,97.75
2023-08-22T21:01:09.407Z,98.30
2023-08-22T21:03:36.290Z,99.07
2023-08-22T21:06:03.663Z,98.68
2023-08-22T21:08:30.627Z,98.65
2023-08-22T21:10:57.613Z,99.15
2023-08-22T21:13:24.372Z,99.64
2023-08-22T21:15:51.203Z,98.73
2023-08-22T21:18:18.162Z,97.14
2023-08-22T21:20:45.243Z,99.51
2023-08-22T21:23:12.132Z,99.11
2023-08-22T21:25:39.164Z,98.81
2023-08-22T21:28:06.549Z,98.22
2023-08-22T21:30:33.319Z,98.51
2023-08-22T21:33:00.321Z,98.75
2023-08-22T21:35:27.169Z,98.58
2023-08-22T21:37:54.056Z,99.78
2023-08-22T21:40:20.985Z,100.00
2023-08-22T21:42:48.132Z,100.00
2023-08-22T21:45:16.007Z,100.00
2023-08-22T21:47:46.555Z,100.00
2023-08-22T21:50:13.502Z,100.00
2023-08-22T21:52:40.723Z,100.00
2023-08-22T21:55:08.374Z,100.00
2023-08-22T21:57:35.396Z,100.00
2023-08-22T22:00:02.183Z,100.00
2023-08-22T22:02:29.314Z,100.00
2023-08-22T22:04:56.161Z,100.00
2023-08-22T22:07:23.195Z,100.00
2023-08-22T22:09:50.766Z,100.00
2023-08-22T22:12:17.517Z,100.00
2023-08-22T22:14:44.673Z,100.00
2023-08-22T22:17:11.505Z,100.00
2023-08-22T22:19:38.449Z,100.00
2023-08-22T22:22:05.393Z,100.00
2023-08-22T22:24:32.793Z,100.00
2023-08-22T22:26:59.588Z,100.00
2023-08-22T22:29:26.554Z,100.00
2023-08-22T22:31:53.373Z,100.00
2023-08-22T22:34:22.020Z,100.00
2023-08-22T22:36:51.010Z,100.00
2023-08-22T22:39:17.909Z,100.00
2023-08-22T22:41:44.898Z,100.00
2023-08-22T22:44:11.738Z,100.00
2023-08-22T22:46:38.549Z,100.00
2023-08-22T22:49:05.818Z,100.00
2023-08-22T22:51:32.817Z,100.00
2023-08-22T22:53:59.577Z,100.00
2023-08-22T22:56:26.530Z,100.00
2023-08-22T22:58:53.355Z,100.00
2023-08-22T23:01:20.777Z,100.00
2023-08-22T23:03:48.270Z,100.00
2023-08-22T23:06:15.199Z,100.00
2023-08-22T23:08:42.269Z,100.00
2023-08-22T23:11:22.282Z,100.00
2023-08-22T23:13:56.380Z,100.00
2023-08-22T23:16:23.277Z,100.00
2023-08-22T23:18:50.208Z,100.00
2023-08-22T23:21:17.012Z,100.00
2023-08-22T23:23:43.889Z,100.00
2023-08-22T23:26:10.802Z,100.00
2023-08-22T23:28:37.948Z,100.00
2023-08-22T23:31:04.860Z,100.00
2023-08-22T23:33:31.683Z,100.00
2023-08-22T23:35:58.599Z,100.00
2023-08-22T23:38:25.448Z,100.00
2023-08-22T23:40:52.399Z,100.00
2023-08-22T23:43:19.564Z,100.00
2023-08-22T23:45:46.840Z,100.00
2023-08-22T23:48:13.666Z,100.00
2023-08-22T23:50:40.899Z,100.00
2023-08-22T23:53:07.981Z,100.00
2023-08-22T23:55:34.813Z,100.00
2023-08-22T23:58:01.644Z,100.00
